sensor_id;sensor_type;location;lat;lon;timestamp;P1;durP1;ratioP1;P2;durP2;ratioP2
29044;SDS011;16133;49.486;12.176;2022-09-09T00:01:28;5.40;;;2.60;;
29044;SDS011;16133;49.486;12.176;2022-09-09T00:07:15;2.97;;;2.38;;
29044;SDS011;16133;49.486;12.176;2022-09-09T00:15:16;3.25;;;2.25;;
29044;SDS011;16133;49.486;12.176;2022-09-09T00:20:48;5.22;;;2.17;;
29044;SDS011;16133;49.486;12.176;2022-09-09T00:25:51;3.10;;;2.28;;
29044;SDS011;16133;49.486;12.176;2022-09-09T00:28:25;4.30;;;2.60;;
29044;SDS011;16133;49.486;12.176;2022-09-09T00:30:52;3.90;;;2.50;;
29044;SDS011;16133;49.486;12.176;2022-09-09T00:33:20;3.95;;;2.53;;
29044;SDS011;16133;49.486;12.176;2022-09-09T00:35:51;3.60;;;2.60;;
29044;SDS011;16133;49.486;12.176;2022-09-09T00:38:23;4.30;;;3.00;;
29044;SDS011;16133;49.486;12.176;2022-09-09T00:41:17;5.22;;;3.00;;
29044;SDS011;16133;49.486;12.176;2022-09-09T00:43:43;4.03;;;2.80;;
29044;SDS011;16133;49.486;12.176;2022-09-09T01:05:26;4.82;;;2.63;;
29044;SDS011;16133;49.486;12.176;2022-09-09T01:08:05;6.43;;;3.35;;
29044;SDS011;16133;49.486;12.176;2022-09-09T01:10:48;3.30;;;2.47;;
29044;SDS011;16133;49.486;12.176;2022-09-09T01:13:23;4.30;;;2.78;;
29044;SDS011;16133;49.486;12.176;2022-09-09T01:15:50;4.72;;;2.97;;
29044;SDS011;16133;49.486;12.176;2022-09-09T01:18:19;4.13;;;3.20;;
29044;SDS011;16133;49.486;12.176;2022-09-09T01:23:37;4.18;;;2.67;;
29044;SDS011;16133;49.486;12.176;2022-09-09T01:28:51;5.25;;;2.70;;
29044;SDS011;16133;49.486;12.176;2022-09-09T01:31:28;4.13;;;2.42;;
29044;SDS011;16133;49.486;12.176;2022-09-09T01:33:57;3.97;;;2.50;;
29044;SDS011;16133;49.486;12.176;2022-09-09T01:36:31;2.88;;;2.30;;
29044;SDS011;16133;49.486;12.176;2022-09-09T01:39:05;4.00;;;2.30;;
29044;SDS011;16133;49.486;12.176;2022-09-09T01:41:31;3.45;;;2.60;;
29044;SDS011;16133;49.486;12.176;2022-09-09T01:43:56;6.55;;;2.20;;
29044;SDS011;16133;49.486;12.176;2022-09-09T01:46:22;2.10;;;1.90;;
29044;SDS011;16133;49.486;12.176;2022-09-09T01:48:48;3.17;;;2.53;;
29044;SDS011;16133;49.486;12.176;2022-09-09T01:51:19;3.47;;;2.67;;
29044;SDS011;16133;49.486;12.176;2022-09-09T01:53:44;4.07;;;2.75;;
29044;SDS011;16133;49.486;12.176;2022-09-09T01:56:35;4.72;;;2.90;;
29044;SDS011;16133;49.486;12.176;2022-09-09T01:59:07;4.32;;;2.88;;
29044;SDS011;16133;49.486;12.176;2022-09-09T02:04:48;5.10;;;2.92;;
29044;SDS011;16133;49.486;12.176;2022-09-09T02:09:41;4.57;;;3.35;;
29044;SDS011;16133;49.486;12.176;2022-09-09T02:12:13;3.83;;;2.80;;
29044;SDS011;16133;49.486;12.176;2022-09-09T02:14:44;5.80;;;3.05;;
29044;SDS011;16133;49.486;12.176;2022-09-09T02:17:15;7.97;;;3.37;;
29044;SDS011;16133;49.486;12.176;2022-09-09T02:20:05;4.28;;;3.20;;
29044;SDS011;16133;49.486;12.176;2022-09-09T02:22:33;4.32;;;3.08;;
29044;SDS011;16133;49.486;12.176;2022-09-09T02:25:00;4.72;;;3.10;;
29044;SDS011;16133;49.486;12.176;2022-09-09T02:27:27;5.40;;;2.92;;
29044;SDS011;16133;49.486;12.176;2022-09-09T02:29:53;4.32;;;3.22;;
29044;SDS011;16133;49.486;12.176;2022-09-09T02:32:22;4.20;;;3.30;;
29044;SDS011;16133;49.486;12.176;2022-09-09T02:34:59;4.30;;;2.70;;
29044;SDS011;16133;49.486;12.176;2022-09-09T02:37:33;4.88;;;3.10;;
29044;SDS011;16133;49.486;12.176;2022-09-09T02:42:32;3.60;;;2.58;;
29044;SDS011;16133;49.486;12.176;2022-09-09T02:45:04;3.83;;;2.88;;
29044;SDS011;16133;49.486;12.176;2022-09-09T02:47:33;3.05;;;2.30;;
29044;SDS011;16133;49.486;12.176;2022-09-09T02:50:22;4.07;;;2.72;;
29044;SDS011;16133;49.486;12.176;2022-09-09T02:53:01;3.38;;;2.30;;
29044;SDS011;16133;49.486;12.176;2022-09-09T02:58:13;3.25;;;2.67;;
29044;SDS011;16133;49.486;12.176;2022-09-09T03:00:48;4.82;;;2.60;;
29044;SDS011;16133;49.486;12.176;2022-09-09T03:03:15;4.15;;;2.83;;
29044;SDS011;16133;49.486;12.176;2022-09-09T03:05:43;3.67;;;2.90;;
29044;SDS011;16133;49.486;12.176;2022-09-09T03:08:09;4.18;;;3.10;;
29044;SDS011;16133;49.486;12.176;2022-09-09T03:10:35;4.03;;;2.70;;
29044;SDS011;16133;49.486;12.176;2022-09-09T03:13:02;4.45;;;3.13;;
29044;SDS011;16133;49.486;12.176;2022-09-09T03:15:29;15.35;;;4.95;;
29044;SDS011;16133;49.486;12.176;2022-09-09T03:17:56;6.05;;;3.78;;
29044;SDS011;16133;49.486;12.176;2022-09-09T03:20:26;4.30;;;3.22;;
29044;SDS011;16133;49.486;12.176;2022-09-09T03:22:53;4.55;;;3.13;;
29044;SDS011;16133;49.486;12.176;2022-09-09T03:25:19;4.85;;;3.85;;
29044;SDS011;16133;49.486;12.176;2022-09-09T03:27:45;4.38;;;3.30;;
29044;SDS011;16133;49.486;12.176;2022-09-09T03:30:11;5.20;;;3.85;;
29044;SDS011;16133;49.486;12.176;2022-09-09T03:32:36;5.18;;;3.47;;
29044;SDS011;16133;49.486;12.176;2022-09-09T03:35:02;5.80;;;3.83;;
29044;SDS011;16133;49.486;12.176;2022-09-09T03:37:28;4.63;;;3.38;;
29044;SDS011;16133;49.486;12.176;2022-09-09T03:39:53;4.20;;;3.20;;
29044;SDS011;16133;49.486;12.176;2022-09-09T03:42:21;4.15;;;3.20;;
29044;SDS011;16133;49.486;12.176;2022-09-09T03:44:47;5.38;;;3.35;;
29044;SDS011;16133;49.486;12.176;2022-09-09T03:47:14;6.15;;;3.58;;
29044;SDS011;16133;49.486;12.176;2022-09-09T03:49:41;5.13;;;3.50;;
29044;SDS011;16133;49.486;12.176;2022-09-09T03:52:07;6.68;;;3.78;;
29044;SDS011;16133;49.486;12.176;2022-09-09T03:54:33;7.47;;;4.07;;
29044;SDS011;16133;49.486;12.176;2022-09-09T03:56:59;5.40;;;3.83;;
29044;SDS011;16133;49.486;12.176;2022-09-09T03:59:24;6.25;;;4.03;;
29044;SDS011;16133;49.486;12.176;2022-09-09T04:01:50;5.85;;;3.72;;
29044;SDS011;16133;49.486;12.176;2022-09-09T04:04:16;5.53;;;3.50;;
29044;SDS011;16133;49.486;12.176;2022-09-09T04:06:41;3.65;;;2.92;;
29044;SDS011;16133;49.486;12.176;2022-09-09T04:09:07;5.57;;;3.75;;
29044;SDS011;16133;49.486;12.176;2022-09-09T04:11:32;5.70;;;3.53;;
29044;SDS011;16133;49.486;12.176;2022-09-09T04:13:58;5.65;;;3.95;;
29044;SDS011;16133;49.486;12.176;2022-09-09T04:16:23;5.40;;;4.03;;
29044;SDS011;16133;49.486;12.176;2022-09-09T04:18:49;8.13;;;4.82;;
29044;SDS011;16133;49.486;12.176;2022-09-09T04:21:14;8.43;;;5.30;;
29044;SDS011;16133;49.486;12.176;2022-09-09T04:23:41;11.20;;;5.38;;
29044;SDS011;16133;49.486;12.176;2022-09-09T04:26:06;11.18;;;5.97;;
29044;SDS011;16133;49.486;12.176;2022-09-09T04:28:33;14.15;;;6.55;;
29044;SDS011;16133;49.486;12.176;2022-09-09T04:31:04;12.45;;;6.95;;
29044;SDS011;16133;49.486;12.176;2022-09-09T04:33:34;10.40;;;6.68;;
29044;SDS011;16133;49.486;12.176;2022-09-09T04:36:00;14.15;;;6.43;;
29044;SDS011;16133;49.486;12.176;2022-09-09T04:38:25;11.98;;;7.40;;
29044;SDS011;16133;49.486;12.176;2022-09-09T04:40:51;10.60;;;6.40;;
29044;SDS011;16133;49.486;12.176;2022-09-09T04:43:19;13.25;;;6.88;;
29044;SDS011;16133;49.486;12.176;2022-09-09T04:45:48;8.52;;;5.40;;
29044;SDS011;16133;49.486;12.176;2022-09-09T04:48:16;11.63;;;6.88;;
29044;SDS011;16133;49.486;12.176;2022-09-09T04:50:42;11.90;;;6.85;;
29044;SDS011;16133;49.486;12.176;2022-09-09T04:53:07;12.75;;;6.40;;
29044;SDS011;16133;49.486;12.176;2022-09-09T04:55:33;15.85;;;7.38;;
29044;SDS011;16133;49.486;12.176;2022-09-09T04:58:06;13.85;;;7.38;;
29044;SDS011;16133;49.486;12.176;2022-09-09T05:00:34;12.68;;;6.72;;
29044;SDS011;16133;49.486;12.176;2022-09-09T05:03:06;11.55;;;6.18;;
29044;SDS011;16133;49.486;12.176;2022-09-09T05:05:34;12.40;;;7.20;;
29044;SDS011;16133;49.486;12.176;2022-09-09T05:08:09;11.73;;;6.70;;
29044;SDS011;16133;49.486;12.176;2022-09-09T05:10:36;11.85;;;6.82;;
29044;SDS011;16133;49.486;12.176;2022-09-09T05:13:03;13.20;;;6.63;;
29044;SDS011;16133;49.486;12.176;2022-09-09T05:15:29;16.17;;;7.40;;
29044;SDS011;16133;49.486;12.176;2022-09-09T05:18:01;15.32;;;7.28;;
29044;SDS011;16133;49.486;12.176;2022-09-09T05:20:27;16.85;;;7.85;;
29044;SDS011;16133;49.486;12.176;2022-09-09T05:22:53;12.30;;;6.57;;
29044;SDS011;16133;49.486;12.176;2022-09-09T05:25:19;13.57;;;7.93;;
29044;SDS011;16133;49.486;12.176;2022-09-09T05:27:46;15.95;;;7.60;;
29044;SDS011;16133;49.486;12.176;2022-09-09T05:30:11;11.02;;;6.10;;
29044;SDS011;16133;49.486;12.176;2022-09-09T05:32:37;9.30;;;6.35;;
29044;SDS011;16133;49.486;12.176;2022-09-09T05:35:02;12.65;;;6.55;;
29044;SDS011;16133;49.486;12.176;2022-09-09T05:37:30;9.15;;;5.93;;
29044;SDS011;16133;49.486;12.176;2022-09-09T05:39:56;8.55;;;5.05;;
29044;SDS011;16133;49.486;12.176;2022-09-09T05:42:21;7.63;;;5.20;;
29044;SDS011;16133;49.486;12.176;2022-09-09T05:44:46;8.90;;;5.10;;
29044;SDS011;16133;49.486;12.176;2022-09-09T05:47:12;11.55;;;5.90;;
29044;SDS011;16133;49.486;12.176;2022-09-09T05:49:37;12.38;;;5.50;;
29044;SDS011;16133;49.486;12.176;2022-09-09T05:52:02;10.32;;;5.65;;
29044;SDS011;16133;49.486;12.176;2022-09-09T05:54:28;10.52;;;5.53;;
29044;SDS011;16133;49.486;12.176;2022-09-09T05:56:54;9.30;;;5.60;;
29044;SDS011;16133;49.486;12.176;2022-09-09T05:59:19;8.85;;;5.10;;
29044;SDS011;16133;49.486;12.176;2022-09-09T06:01:45;13.82;;;7.35;;
29044;SDS011;16133;49.486;12.176;2022-09-09T06:04:11;12.15;;;7.38;;
29044;SDS011;16133;49.486;12.176;2022-09-09T06:06:37;13.98;;;7.03;;
29044;SDS011;16133;49.486;12.176;2022-09-09T06:09:05;13.88;;;7.03;;
29044;SDS011;16133;49.486;12.176;2022-09-09T06:11:35;12.80;;;7.25;;
29044;SDS011;16133;49.486;12.176;2022-09-09T06:14:01;11.68;;;6.85;;
29044;SDS011;16133;49.486;12.176;2022-09-09T06:16:27;8.10;;;6.22;;
29044;SDS011;16133;49.486;12.176;2022-09-09T06:18:54;8.35;;;5.85;;
29044;SDS011;16133;49.486;12.176;2022-09-09T06:21:34;8.02;;;5.95;;
29044;SDS011;16133;49.486;12.176;2022-09-09T06:24:02;7.50;;;5.50;;
29044;SDS011;16133;49.486;12.176;2022-09-09T06:26:32;10.27;;;5.35;;
29044;SDS011;16133;49.486;12.176;2022-09-09T06:28:59;11.25;;;6.40;;
29044;SDS011;16133;49.486;12.176;2022-09-09T06:31:28;9.18;;;5.25;;
29044;SDS011;16133;49.486;12.176;2022-09-09T06:33:55;9.15;;;5.53;;
29044;SDS011;16133;49.486;12.176;2022-09-09T06:38:48;7.32;;;5.07;;
29044;SDS011;16133;49.486;12.176;2022-09-09T06:41:15;7.93;;;5.38;;
29044;SDS011;16133;49.486;12.176;2022-09-09T06:43:42;5.90;;;4.10;;
29044;SDS011;16133;49.486;12.176;2022-09-09T06:48:40;4.97;;;4.10;;
29044;SDS011;16133;49.486;12.176;2022-09-09T06:51:08;5.45;;;4.32;;
29044;SDS011;16133;49.486;12.176;2022-09-09T06:53:36;12.73;;;4.32;;
29044;SDS011;16133;49.486;12.176;2022-09-09T06:58:48;5.85;;;3.40;;
29044;SDS011;16133;49.486;12.176;2022-09-09T07:01:22;5.05;;;4.28;;
29044;SDS011;16133;49.486;12.176;2022-09-09T07:03:50;5.15;;;3.97;;
29044;SDS011;16133;49.486;12.176;2022-09-09T07:06:18;6.18;;;3.35;;
29044;SDS011;16133;49.486;12.176;2022-09-09T07:08:58;4.15;;;3.05;;
29044;SDS011;16133;49.486;12.176;2022-09-09T07:11:28;5.40;;;3.85;;
29044;SDS011;16133;49.486;12.176;2022-09-09T07:13:56;5.95;;;4.32;;
29044;SDS011;16133;49.486;12.176;2022-09-09T07:16:23;4.63;;;3.35;;
29044;SDS011;16133;49.486;12.176;2022-09-09T07:18:50;3.97;;;3.25;;
29044;SDS011;16133;49.486;12.176;2022-09-09T07:21:16;4.93;;;3.55;;
29044;SDS011;16133;49.486;12.176;2022-09-09T07:23:42;4.70;;;3.30;;
29044;SDS011;16133;49.486;12.176;2022-09-09T07:26:09;3.22;;;2.85;;
29044;SDS011;16133;49.486;12.176;2022-09-09T07:28:35;5.25;;;3.55;;
29044;SDS011;16133;49.486;12.176;2022-09-09T07:31:00;5.38;;;3.10;;
29044;SDS011;16133;49.486;12.176;2022-09-09T07:33:30;4.97;;;3.85;;
29044;SDS011;16133;49.486;12.176;2022-09-09T07:36:02;3.47;;;2.85;;
29044;SDS011;16133;49.486;12.176;2022-09-09T07:38:48;6.85;;;3.83;;
29044;SDS011;16133;49.486;12.176;2022-09-09T07:41:17;6.43;;;4.63;;
29044;SDS011;16133;49.486;12.176;2022-09-09T07:43:45;6.35;;;4.97;;
29044;SDS011;16133;49.486;12.176;2022-09-09T07:46:13;5.50;;;4.53;;
29044;SDS011;16133;49.486;12.176;2022-09-09T07:48:43;9.98;;;7.05;;
29044;SDS011;16133;49.486;12.176;2022-09-09T07:51:11;9.73;;;6.78;;
29044;SDS011;16133;49.486;12.176;2022-09-09T07:53:42;10.23;;;6.82;;
29044;SDS011;16133;49.486;12.176;2022-09-09T07:56:08;11.13;;;7.30;;
29044;SDS011;16133;49.486;12.176;2022-09-09T07:58:37;10.25;;;7.35;;
29044;SDS011;16133;49.486;12.176;2022-09-09T08:01:07;8.82;;;6.60;;
29044;SDS011;16133;49.486;12.176;2022-09-09T08:03:33;11.35;;;6.35;;
29044;SDS011;16133;49.486;12.176;2022-09-09T08:06:02;10.85;;;8.32;;
29044;SDS011;16133;49.486;12.176;2022-09-09T08:08:33;8.98;;;6.72;;
29044;SDS011;16133;49.486;12.176;2022-09-09T08:11:10;10.48;;;6.82;;
29044;SDS011;16133;49.486;12.176;2022-09-09T08:13:37;13.30;;;8.93;;
29044;SDS011;16133;49.486;12.176;2022-09-09T08:16:08;11.13;;;8.07;;
29044;SDS011;16133;49.486;12.176;2022-09-09T08:18:36;7.40;;;6.40;;
29044;SDS011;16133;49.486;12.176;2022-09-09T08:21:10;7.18;;;5.95;;
29044;SDS011;16133;49.486;12.176;2022-09-09T08:23:41;10.48;;;8.48;;
29044;SDS011;16133;49.486;12.176;2022-09-09T08:26:17;8.25;;;6.40;;
29044;SDS011;16133;49.486;12.176;2022-09-09T08:28:48;9.18;;;6.93;;
29044;SDS011;16133;49.486;12.176;2022-09-09T08:31:28;6.30;;;5.45;;
29044;SDS011;16133;49.486;12.176;2022-09-09T08:33:58;10.10;;;7.63;;
29044;SDS011;16133;49.486;12.176;2022-09-09T08:36:25;10.20;;;7.55;;
29044;SDS011;16133;49.486;12.176;2022-09-09T08:38:53;8.30;;;6.95;;
29044;SDS011;16133;49.486;12.176;2022-09-09T08:44:02;6.88;;;6.18;;
29044;SDS011;16133;49.486;12.176;2022-09-09T08:46:56;5.65;;;5.05;;
29044;SDS011;16133;49.486;12.176;2022-09-09T08:52:38;7.20;;;6.25;;
29044;SDS011;16133;49.486;12.176;2022-09-09T08:57:58;6.03;;;4.82;;
29044;SDS011;16133;49.486;12.176;2022-09-09T09:00:34;5.72;;;4.72;;
29044;SDS011;16133;49.486;12.176;2022-09-09T09:05:37;5.82;;;5.15;;
29044;SDS011;16133;49.486;12.176;2022-09-09T09:13:19;7.20;;;4.82;;
29044;SDS011;16133;49.486;12.176;2022-09-09T09:16:20;7.40;;;5.75;;
29044;SDS011;16133;49.486;12.176;2022-09-09T09:18:52;5.28;;;4.50;;
29044;SDS011;16133;49.486;12.176;2022-09-09T09:21:21;5.18;;;4.13;;
29044;SDS011;16133;49.486;12.176;2022-09-09T09:24:20;6.37;;;4.50;;
29044;SDS011;16133;49.486;12.176;2022-09-09T09:26:48;5.35;;;4.75;;
29044;SDS011;16133;49.486;12.176;2022-09-09T09:29:15;5.68;;;4.55;;
29044;SDS011;16133;49.486;12.176;2022-09-09T09:31:45;17.33;;;5.88;;
29044;SDS011;16133;49.486;12.176;2022-09-09T09:34:27;8.10;;;3.70;;
29044;SDS011;16133;49.486;12.176;2022-09-09T09:36:54;6.82;;;3.95;;
29044;SDS011;16133;49.486;12.176;2022-09-09T09:39:26;7.32;;;4.43;;
29044;SDS011;16133;49.486;12.176;2022-09-09T09:41:53;5.07;;;4.00;;
29044;SDS011;16133;49.486;12.176;2022-09-09T09:44:26;4.30;;;3.75;;
29044;SDS011;16133;49.486;12.176;2022-09-09T09:46:52;10.48;;;5.07;;
29044;SDS011;16133;49.486;12.176;2022-09-09T09:49:18;4.75;;;4.25;;
29044;SDS011;16133;49.486;12.176;2022-09-09T09:51:44;5.00;;;3.55;;
29044;SDS011;16133;49.486;12.176;2022-09-09T09:56:38;5.60;;;4.05;;
29044;SDS011;16133;49.486;12.176;2022-09-09T09:59:05;3.72;;;3.05;;
29044;SDS011;16133;49.486;12.176;2022-09-09T10:01:31;5.05;;;3.17;;
29044;SDS011;16133;49.486;12.176;2022-09-09T10:06:51;4.43;;;2.63;;
29044;SDS011;16133;49.486;12.176;2022-09-09T10:09:24;5.97;;;3.00;;
29044;SDS011;16133;49.486;12.176;2022-09-09T10:28:38;4.07;;;2.00;;
29044;SDS011;16133;49.486;12.176;2022-09-09T10:31:32;4.20;;;2.00;;
29044;SDS011;16133;49.486;12.176;2022-09-09T10:37:18;3.22;;;1.63;;
29044;SDS011;16133;49.486;12.176;2022-09-09T10:43:20;2.05;;;1.48;;
29044;SDS011;16133;49.486;12.176;2022-09-09T10:57:16;1.95;;;1.02;;
29044;SDS011;16133;49.486;12.176;2022-09-09T10:59:49;2.60;;;1.10;;
29044;SDS011;16133;49.486;12.176;2022-09-09T11:02:31;1.27;;;0.90;;
29044;SDS011;16133;49.486;12.176;2022-09-09T11:07:40;6.03;;;1.20;;
29044;SDS011;16133;49.486;12.176;2022-09-09T11:10:34;1.60;;;1.30;;
29044;SDS011;16133;49.486;12.176;2022-09-09T11:13:09;2.70;;;1.02;;
29044;SDS011;16133;49.486;12.176;2022-09-09T11:15:51;2.60;;;1.17;;
29044;SDS011;16133;49.486;12.176;2022-09-09T11:18:22;4.32;;;0.88;;
29044;SDS011;16133;49.486;12.176;2022-09-09T11:20:49;0.82;;;0.73;;
29044;SDS011;16133;49.486;12.176;2022-09-09T11:23:22;2.45;;;1.02;;
29044;SDS011;16133;49.486;12.176;2022-09-09T11:25:59;2.08;;;1.00;;
29044;SDS011;16133;49.486;12.176;2022-09-09T11:34:02;1.00;;;0.60;;
29044;SDS011;16133;49.486;12.176;2022-09-09T11:44:51;4.93;;;1.10;;
29044;SDS011;16133;49.486;12.176;2022-09-09T11:53:14;1.75;;;0.98;;
29044;SDS011;16133;49.486;12.176;2022-09-09T12:00:40;2.38;;;0.82;;
29044;SDS011;16133;49.486;12.176;2022-09-09T12:05:53;1.08;;;0.68;;
29044;SDS011;16133;49.486;12.176;2022-09-09T12:08:23;1.67;;;0.77;;
29044;SDS011;16133;49.486;12.176;2022-09-09T12:10:54;1.92;;;0.70;;
29044;SDS011;16133;49.486;12.176;2022-09-09T12:13:21;1.33;;;0.88;;
29044;SDS011;16133;49.486;12.176;2022-09-09T12:15:53;1.45;;;0.60;;
29044;SDS011;16133;49.486;12.176;2022-09-09T12:18:36;1.98;;;0.50;;
29044;SDS011;16133;49.486;12.176;2022-09-09T12:21:21;1.30;;;0.70;;
29044;SDS011;16133;49.486;12.176;2022-09-09T12:23:52;1.35;;;0.50;;
29044;SDS011;16133;49.486;12.176;2022-09-09T12:26:37;1.05;;;0.60;;
29044;SDS011;16133;49.486;12.176;2022-09-09T12:29:41;3.42;;;0.90;;
29044;SDS011;16133;49.486;12.176;2022-09-09T12:32:59;1.05;;;0.52;;
29044;SDS011;16133;49.486;12.176;2022-09-09T12:35:27;2.20;;;0.93;;
29044;SDS011;16133;49.486;12.176;2022-09-09T12:37:56;1.70;;;0.80;;
29044;SDS011;16133;49.486;12.176;2022-09-09T12:42:52;9.25;;;1.30;;
29044;SDS011;16133;49.486;12.176;2022-09-09T12:47:51;1.63;;;0.60;;
29044;SDS011;16133;49.486;12.176;2022-09-09T12:50:44;1.08;;;0.50;;
29044;SDS011;16133;49.486;12.176;2022-09-09T12:53:12;1.73;;;0.80;;
29044;SDS011;16133;49.486;12.176;2022-09-09T12:55:52;1.95;;;0.30;;
29044;SDS011;16133;49.486;12.176;2022-09-09T12:58:25;0.70;;;0.50;;
29044;SDS011;16133;49.486;12.176;2022-09-09T13:00:53;0.30;;;0.28;;
29044;SDS011;16133;49.486;12.176;2022-09-09T13:03:23;0.68;;;0.50;;
29044;SDS011;16133;49.486;12.176;2022-09-09T13:05:50;0.95;;;0.77;;
29044;SDS011;16133;49.486;12.176;2022-09-09T13:08:16;4.85;;;0.52;;
29044;SDS011;16133;49.486;12.176;2022-09-09T13:13:17;1.63;;;0.50;;
29044;SDS011;16133;49.486;12.176;2022-09-09T13:16:04;0.80;;;0.50;;
29044;SDS011;16133;49.486;12.176;2022-09-09T13:18:37;1.70;;;0.40;;
29044;SDS011;16133;49.486;12.176;2022-09-09T13:21:06;0.83;;;0.53;;
29044;SDS011;16133;49.486;12.176;2022-09-09T13:23:34;1.55;;;0.57;;
29044;SDS011;16133;49.486;12.176;2022-09-09T13:26:03;2.85;;;0.68;;
29044;SDS011;16133;49.486;12.176;2022-09-09T13:28:31;0.60;;;0.50;;
29044;SDS011;16133;49.486;12.176;2022-09-09T13:30:59;0.90;;;0.30;;
29044;SDS011;16133;49.486;12.176;2022-09-09T13:33:29;0.75;;;0.40;;
29044;SDS011;16133;49.486;12.176;2022-09-09T13:38:28;0.40;;;0.40;;
29044;SDS011;16133;49.486;12.176;2022-09-09T13:41:00;2.30;;;0.60;;
29044;SDS011;16133;49.486;12.176;2022-09-09T13:43:42;0.90;;;0.50;;
29044;SDS011;16133;49.486;12.176;2022-09-09T13:46:24;1.60;;;0.40;;
29044;SDS011;16133;49.486;12.176;2022-09-09T13:48:56;0.85;;;0.60;;
29044;SDS011;16133;49.486;12.176;2022-09-09T13:51:30;1.65;;;0.85;;
29044;SDS011;16133;49.486;12.176;2022-09-09T13:54:06;2.90;;;1.02;;
29044;SDS011;16133;49.486;12.176;2022-09-09T13:56:34;1.25;;;0.50;;
29044;SDS011;16133;49.486;12.176;2022-09-09T13:59:02;3.15;;;0.90;;
29044;SDS011;16133;49.486;12.176;2022-09-09T14:01:29;1.25;;;0.70;;
29044;SDS011;16133;49.486;12.176;2022-09-09T14:03:54;2.85;;;0.73;;
29044;SDS011;16133;49.486;12.176;2022-09-09T14:06:20;5.75;;;1.50;;
29044;SDS011;16133;49.486;12.176;2022-09-09T14:08:49;2.85;;;0.88;;
29044;SDS011;16133;49.486;12.176;2022-09-09T14:11:15;1.38;;;0.70;;
29044;SDS011;16133;49.486;12.176;2022-09-09T14:13:41;2.47;;;0.70;;
29044;SDS011;16133;49.486;12.176;2022-09-09T14:16:07;1.55;;;1.05;;
29044;SDS011;16133;49.486;12.176;2022-09-09T14:18:32;3.03;;;0.95;;
29044;SDS011;16133;49.486;12.176;2022-09-09T14:20:58;2.50;;;1.00;;
29044;SDS011;16133;49.486;12.176;2022-09-09T14:23:24;1.33;;;0.60;;
29044;SDS011;16133;49.486;12.176;2022-09-09T14:25:50;1.45;;;0.80;;
29044;SDS011;16133;49.486;12.176;2022-09-09T14:28:16;3.67;;;1.25;;
29044;SDS011;16133;49.486;12.176;2022-09-09T14:30:42;0.60;;;0.60;;
29044;SDS011;16133;49.486;12.176;2022-09-09T14:33:13;2.67;;;1.13;;
29044;SDS011;16133;49.486;12.176;2022-09-09T14:35:40;0.93;;;0.70;;
29044;SDS011;16133;49.486;12.176;2022-09-09T14:38:06;1.15;;;0.82;;
29044;SDS011;16133;49.486;12.176;2022-09-09T14:40:31;2.10;;;1.05;;
29044;SDS011;16133;49.486;12.176;2022-09-09T14:42:59;1.65;;;0.85;;
29044;SDS011;16133;49.486;12.176;2022-09-09T14:45:31;4.47;;;0.77;;
29044;SDS011;16133;49.486;12.176;2022-09-09T14:47:57;3.47;;;1.73;;
29044;SDS011;16133;49.486;12.176;2022-09-09T14:50:24;2.03;;;1.10;;
29044;SDS011;16133;49.486;12.176;2022-09-09T14:52:49;2.38;;;1.10;;
29044;SDS011;16133;49.486;12.176;2022-09-09T14:55:15;1.55;;;0.95;;
29044;SDS011;16133;49.486;12.176;2022-09-09T14:57:41;1.17;;;0.50;;
29044;SDS011;16133;49.486;12.176;2022-09-09T15:00:08;1.08;;;0.35;;
29044;SDS011;16133;49.486;12.176;2022-09-09T15:02:34;2.95;;;0.30;;
29044;SDS011;16133;49.486;12.176;2022-09-09T15:04:59;1.75;;;0.40;;
29044;SDS011;16133;49.486;12.176;2022-09-09T15:07:25;2.67;;;0.80;;
29044;SDS011;16133;49.486;12.176;2022-09-09T15:09:51;0.65;;;0.30;;
29044;SDS011;16133;49.486;12.176;2022-09-09T15:12:17;1.67;;;0.50;;
29044;SDS011;16133;49.486;12.176;2022-09-09T15:14:44;1.33;;;0.57;;
29044;SDS011;16133;49.486;12.176;2022-09-09T15:17:10;0.30;;;0.20;;
29044;SDS011;16133;49.486;12.176;2022-09-09T15:19:36;1.02;;;0.30;;
29044;SDS011;16133;49.486;12.176;2022-09-09T15:22:02;2.00;;;0.60;;
29044;SDS011;16133;49.486;12.176;2022-09-09T15:24:28;9.63;;;0.60;;
29044;SDS011;16133;49.486;12.176;2022-09-09T15:26:53;0.70;;;0.30;;
29044;SDS011;16133;49.486;12.176;2022-09-09T15:29:19;0.28;;;0.20;;
29044;SDS011;16133;49.486;12.176;2022-09-09T15:31:44;0.85;;;0.40;;
29044;SDS011;16133;49.486;12.176;2022-09-09T15:34:10;1.10;;;0.50;;
29044;SDS011;16133;49.486;12.176;2022-09-09T15:36:37;2.85;;;0.30;;
29044;SDS011;16133;49.486;12.176;2022-09-09T15:39:05;1.38;;;0.40;;
29044;SDS011;16133;49.486;12.176;2022-09-09T15:41:32;7.55;;;1.20;;
29044;SDS011;16133;49.486;12.176;2022-09-09T15:43:58;6.40;;;1.20;;
29044;SDS011;16133;49.486;12.176;2022-09-09T15:51:50;1.80;;;0.93;;
29044;SDS011;16133;49.486;12.176;2022-09-09T15:54:22;5.85;;;1.60;;
29044;SDS011;16133;49.486;12.176;2022-09-09T15:56:55;4.30;;;1.35;;
29044;SDS011;16133;49.486;12.176;2022-09-09T15:59:23;2.20;;;1.20;;
29044;SDS011;16133;49.486;12.176;2022-09-09T16:01:49;1.48;;;1.10;;
29044;SDS011;16133;49.486;12.176;2022-09-09T16:04:18;1.25;;;0.60;;
29044;SDS011;16133;49.486;12.176;2022-09-09T16:06:51;0.80;;;0.70;;
29044;SDS011;16133;49.486;12.176;2022-09-09T16:09:21;1.48;;;0.75;;
29044;SDS011;16133;49.486;12.176;2022-09-09T16:11:47;1.48;;;0.60;;
29044;SDS011;16133;49.486;12.176;2022-09-09T16:14:13;1.42;;;0.70;;
29044;SDS011;16133;49.486;12.176;2022-09-09T16:16:40;0.63;;;0.60;;
29044;SDS011;16133;49.486;12.176;2022-09-09T16:19:07;1.30;;;0.80;;
29044;SDS011;16133;49.486;12.176;2022-09-09T16:21:39;0.95;;;0.70;;
29044;SDS011;16133;49.486;12.176;2022-09-09T16:24:07;1.30;;;0.80;;
29044;SDS011;16133;49.486;12.176;2022-09-09T16:26:34;1.00;;;0.80;;
29044;SDS011;16133;49.486;12.176;2022-09-09T16:29:00;1.25;;;0.63;;
29044;SDS011;16133;49.486;12.176;2022-09-09T16:31:27;0.50;;;0.38;;
29044;SDS011;16133;49.486;12.176;2022-09-09T16:33:54;0.75;;;0.50;;
29044;SDS011;16133;49.486;12.176;2022-09-09T16:36:20;0.47;;;0.30;;
29044;SDS011;16133;49.486;12.176;2022-09-09T16:38:47;0.50;;;0.40;;
29044;SDS011;16133;49.486;12.176;2022-09-09T16:41:13;0.50;;;0.40;;
29044;SDS011;16133;49.486;12.176;2022-09-09T16:43:40;0.70;;;0.47;;
29044;SDS011;16133;49.486;12.176;2022-09-09T16:46:13;0.57;;;0.30;;
29044;SDS011;16133;49.486;12.176;2022-09-09T16:48:41;0.47;;;0.40;;
29044;SDS011;16133;49.486;12.176;2022-09-09T16:51:15;0.40;;;0.38;;
29044;SDS011;16133;49.486;12.176;2022-09-09T16:53:45;0.30;;;0.22;;
29044;SDS011;16133;49.486;12.176;2022-09-09T16:56:15;0.38;;;0.30;;
29044;SDS011;16133;49.486;12.176;2022-09-09T16:58:43;0.30;;;0.30;;
29044;SDS011;16133;49.486;12.176;2022-09-09T17:01:15;0.40;;;0.28;;
29044;SDS011;16133;49.486;12.176;2022-09-09T17:03:40;0.60;;;0.20;;
29044;SDS011;16133;49.486;12.176;2022-09-09T17:06:10;0.10;;;0.10;;
29044;SDS011;16133;49.486;12.176;2022-09-09T17:08:36;0.10;;;0.10;;
29044;SDS011;16133;49.486;12.176;2022-09-09T17:11:02;0.45;;;0.20;;
29044;SDS011;16133;49.486;12.176;2022-09-09T17:13:29;0.25;;;0.20;;
29044;SDS011;16133;49.486;12.176;2022-09-09T17:15:56;0.10;;;0.10;;
29044;SDS011;16133;49.486;12.176;2022-09-09T17:18:21;0.00;;;0.00;;
29044;SDS011;16133;49.486;12.176;2022-09-09T17:20:47;0.10;;;0.10;;
29044;SDS011;16133;49.486;12.176;2022-09-09T17:23:12;0.00;;;0.00;;
29044;SDS011;16133;49.486;12.176;2022-09-09T17:25:40;0.10;;;0.10;;
29044;SDS011;16133;49.486;12.176;2022-09-09T17:28:06;0.10;;;0.10;;